Time;durP1;ratioP1;P1;durP2;ratioP2;P2;SDS_P1;SDS_P2;PMS_P1;PMS_P2;Temp;Humidity;BMP_temperature;BMP_pressure;BME280_temperature;BME280_humidity;BME280_pressure;Samples;Min_cycle;Max_cycle;Signal;HPM_P1;HPM_P2
2023/08/06 00:02:16;;;;;;;5.00;4.50;;;15.00;99.90;;;;;;5004718;28;20227;-76
2023/08/06 00:05:01;;;;;;;4.60;4.13;;;15.00;99.90;;;;;;4997280;28;20235;-77
2023/08/06 00:07:45;;;;;;;4.00;3.60;;;15.00;99.90;;;;;;5006049;28;20370;-72
2023/08/06 00:10:29;;;;;;;7.03;4.47;;;15.00;99.90;;;;;;5008390;28;20192;-74
2023/08/06 00:13:14;;;;;;;4.90;4.50;;;14.90;99.90;;;;;;5008407;28;20204;-75
2023/08/06 00:16:14;;;;;;;5.20;4.70;;;14.90;99.90;;;;;;5015309;28;20184;-74
2023/08/06 00:18:58;;;;;;;5.47;4.97;;;14.90;99.90;;;;;;5023375;28;20297;-73
2023/08/06 00:21:42;;;;;;;5.40;4.93;;;14.90;99.90;;;;;;5010221;28;20244;-74
2023/08/06 00:24:26;;;;;;;5.43;4.93;;;14.90;99.90;;;;;;5020287;28;20192;-74
2023/08/06 00:27:11;;;;;;;5.97;5.33;;;14.90;99.90;;;;;;5003289;28;20192;-75
2023/08/06 00:29:55;;;;;;;5.70;5.10;;;15.30;99.90;;;;;;5020365;28;20219;-75
2023/08/06 00:32:40;;;;;;;5.67;5.03;;;15.00;99.90;;;;;;5004844;28;20212;-75
2023/08/06 00:35:24;;;;;;;8.93;5.07;;;15.00;99.90;;;;;;5002129;28;20183;-74
2023/08/06 00:38:08;;;;;;;6.30;5.37;;;15.00;99.90;;;;;;5009105;28;20273;-73
2023/08/06 00:40:53;;;;;;;6.90;5.23;;;15.00;99.90;;;;;;5010021;28;20207;-78
2023/08/06 00:43:37;;;;;;;6.13;5.57;;;14.90;99.90;;;;;;5004038;28;20191;-73
2023/08/06 00:46:22;;;;;;;5.33;4.83;;;14.90;99.90;;;;;;5001475;28;20201;-74
2023/08/06 00:49:09;;;;;;;7.67;5.20;;;14.90;99.90;;;;;;5014439;28;20264;-76
2023/08/06 00:51:57;;;;;;;5.43;4.93;;;14.90;99.90;;;;;;5012556;28;20263;-75
2023/08/06 00:54:41;;;;;;;5.57;5.07;;;14.90;99.90;;;;;;5011689;28;20683;-75
2023/08/06 00:57:26;;;;;;;5.47;4.97;;;14.90;99.90;;;;;;4998145;28;20274;-74
2023/08/06 01:00:11;;;;;;;6.80;4.63;;;14.90;99.90;;;;;;5023913;28;20287;-73
2023/08/06 01:02:55;;;;;;;4.80;4.37;;;14.90;99.90;;;;;;4998763;28;20288;-72
2023/08/06 01:05:40;;;;;;;5.47;4.40;;;14.90;99.90;;;;;;5011559;28;20276;-73
2023/08/06 01:08:44;;;;;;;4.90;4.50;;;14.90;99.90;;;;;;5006848;28;20220;-75
2023/08/06 01:11:37;;;;;;;5.03;4.60;;;14.90;99.90;;;;;;5007793;28;20216;-75
2023/08/06 01:14:42;;;;;;;6.40;5.10;;;14.80;99.90;;;;;;5009168;28;20192;-74
2023/08/06 01:17:27;;;;;;;5.73;4.90;;;14.80;99.90;;;;;;5008827;28;20199;-73
2023/08/06 01:20:11;;;;;;;6.10;4.70;;;14.80;99.90;;;;;;5008708;28;20671;-73
2023/08/06 01:22:55;;;;;;;5.20;4.80;;;14.80;99.90;;;;;;5004688;28;20319;-75
2023/08/06 01:25:53;;;;;;;6.30;4.90;;;14.80;99.90;;;;;;5005681;28;20189;-75
2023/08/06 01:28:38;;;;;;;4.63;4.23;;;14.80;99.90;;;;;;5009023;28;20218;-72
2023/08/06 01:31:27;;;;;;;5.37;4.87;;;14.70;99.90;;;;;;5010370;28;20227;-72
2023/08/06 01:34:21;;;;;;;5.40;4.70;;;14.70;99.90;;;;;;4999284;28;20181;-75
2023/08/06 01:37:06;;;;;;;7.13;4.93;;;14.70;99.90;;;;;;5006798;28;20224;-76
2023/08/06 01:39:50;;;;;;;5.53;4.20;;;14.70;99.90;;;;;;5009462;28;20216;-73
2023/08/06 01:42:34;;;;;;;5.97;5.00;;;14.70;99.90;;;;;;5005047;28;20273;-73
2023/08/06 01:45:19;;;;;;;4.90;4.43;;;14.80;99.90;;;;;;5006708;28;20231;-73
2023/08/06 01:48:06;;;;;;;4.83;4.33;;;14.80;99.90;;;;;;5005951;28;20199;-76
2023/08/06 01:50:50;;;;;;;4.77;4.37;;;14.80;99.90;;;;;;5015977;28;20247;-72
2023/08/06 01:53:35;;;;;;;7.33;4.27;;;14.80;99.90;;;;;;5023039;28;20191;-75
2023/08/06 01:56:19;;;;;;;4.47;4.07;;;14.80;99.90;;;;;;5002323;28;20216;-71
2023/08/06 01:59:04;;;;;;;4.60;4.20;;;14.80;99.90;;;;;;5000814;28;20211;-74
2023/08/06 02:01:48;;;;;;;5.63;5.13;;;14.80;99.90;;;;;;5003341;28;20207;-75
2023/08/06 02:04:33;;;;;;;5.47;4.97;;;14.70;99.90;;;;;;5009305;28;20246;-72
2023/08/06 02:07:17;;;;;;;5.20;4.57;;;14.80;99.90;;;;;;5001685;28;20220;-75
2023/08/06 02:10:02;;;;;;;5.20;4.37;;;14.70;99.90;;;;;;5003551;28;20346;-76
2023/08/06 02:12:45;;;;;;;5.33;4.83;;;14.80;99.90;;;;;;4999910;28;20211;-73
2023/08/06 02:15:30;;;;;;;4.97;4.57;;;14.80;99.90;;;;;;5003933;28;20192;-75
2023/08/06 02:18:15;;;;;;;5.70;4.63;;;14.80;99.90;;;;;;5005833;28;20279;-77
2023/08/06 02:21:00;;;;;;;6.23;4.90;;;14.80;99.90;;;;;;5003223;28;20187;-73
2023/08/06 02:23:44;;;;;;;5.60;5.10;;;14.80;99.90;;;;;;5004031;28;20230;-74
2023/08/06 02:26:28;;;;;;;5.10;4.67;;;14.80;99.90;;;;;;5002441;28;20255;-73
2023/08/06 02:29:12;;;;;;;6.57;4.47;;;14.80;99.90;;;;;;5002590;28;20220;-74
2023/08/06 02:31:56;;;;;;;7.17;4.70;;;14.80;99.90;;;;;;5002472;28;20256;-75
2023/08/06 02:34:41;;;;;;;5.73;4.97;;;14.90;99.90;;;;;;5002932;28;20672;-74
2023/08/06 02:37:28;;;;;;;6.30;4.93;;;14.80;99.90;;;;;;5002364;28;20184;-72
2023/08/06 02:40:12;;;;;;;4.83;4.30;;;14.80;99.90;;;;;;4998084;28;20242;-74
2023/08/06 02:42:59;;;;;;;6.70;4.77;;;14.80;99.90;;;;;;5007535;28;20242;-73
2023/08/06 02:45:43;;;;;;;8.37;4.97;;;14.80;99.90;;;;;;5016066;28;20199;-77
2023/08/06 02:48:28;;;;;;;5.47;4.77;;;14.80;99.90;;;;;;5009590;28;20211;-73
2023/08/06 02:51:12;;;;;;;5.43;4.83;;;14.80;99.90;;;;;;5006697;28;20200;-73
2023/08/06 02:53:59;;;;;;;5.57;5.07;;;14.80;99.90;;;;;;4997876;28;20277;-75
2023/08/06 02:56:44;;;;;;;7.27;5.50;;;13.70;99.90;;;;;;5005104;28;20247;-75
2023/08/06 02:59:28;;;;;;;8.47;6.40;;;14.80;99.90;;;;;;5003645;28;20216;-76
2023/08/06 03:02:13;;;;;;;5.80;5.10;;;14.80;99.90;;;;;;5003358;28;20668;-72
2023/08/06 03:04:57;;;;;;;7.57;6.23;;;14.60;99.90;;;;;;5004546;28;20180;-74
2023/08/06 03:07:41;;;;;;;6.77;6.07;;;17.00;99.90;;;;;;5008831;28;20243;-72
2023/08/06 03:10:26;;;;;;;10.33;5.70;;;14.80;99.90;;;;;;5008466;28;20202;-74
2023/08/06 03:13:10;;;;;;;7.43;6.50;;;14.80;99.90;;;;;;5007378;28;20218;-73
2023/08/06 03:15:56;;;;;;;9.07;6.50;;;14.80;99.90;;;;;;5027508;28;20200;-75
2023/08/06 03:18:40;;;;;;;9.13;6.10;;;14.80;99.90;;;;;;5007236;28;20278;-73
2023/08/06 03:21:25;;;;;;;7.57;5.87;;;14.80;99.90;;;;;;5009098;28;20246;-78
2023/08/06 03:24:09;;;;;;;8.70;6.10;;;14.80;99.90;;;;;;5020520;28;20216;-75
2023/08/06 03:26:54;;;;;;;7.13;6.43;;;14.80;99.90;;;;;;5006762;28;20187;-74
2023/08/06 03:29:38;;;;;;;7.10;6.40;;;14.80;99.90;;;;;;5006284;28;20216;-75
2023/08/06 03:32:23;;;;;;;8.90;6.27;;;14.80;99.90;;;;;;5004768;28;20220;-72
2023/08/06 03:35:07;;;;;;;8.90;7.20;;;14.80;99.90;;;;;;5005200;28;20235;-74
2023/08/06 03:37:52;;;;;;;6.33;5.73;;;14.80;99.90;;;;;;5011317;28;20239;-74
2023/08/06 03:40:36;;;;;;;9.47;6.83;;;14.80;99.90;;;;;;5025758;28;20676;-72
2023/08/06 03:43:21;;;;;;;8.20;6.70;;;14.80;99.90;;;;;;5008425;28;20336;-74
2023/08/06 03:46:05;;;;;;;7.90;7.10;;;14.70;99.90;;;;;;5009276;28;20191;-75
2023/08/06 03:48:50;;;;;;;9.50;6.70;;;14.70;99.90;;;;;;5008949;28;20234;-76
2023/08/06 03:51:34;;;;;;;7.80;6.53;;;14.70;99.90;;;;;;5022866;28;20260;-73
2023/08/06 03:54:18;;;;;;;9.43;7.10;;;14.60;99.90;;;;;;5021661;28;20196;-73
2023/08/06 03:57:02;;;;;;;8.00;6.50;;;14.70;99.90;;;;;;5008931;28;20256;-76
2023/08/06 03:59:47;;;;;;;10.53;6.80;;;14.70;99.90;;;;;;5010411;28;20215;-75
2023/08/06 04:02:32;;;;;;;9.67;6.80;;;14.70;99.90;;;;;;5008375;28;20216;-75
2023/08/06 04:05:16;;;;;;;9.33;7.80;;;14.60;99.90;;;;;;5011155;28;20238;-73
2023/08/06 04:08:01;;;;;;;10.10;7.83;;;14.60;99.90;;;;;;5010842;28;20196;-75
2023/08/06 04:10:45;;;;;;;9.47;8.03;;;14.50;99.90;;;;;;5008922;28;20184;-74
2023/08/06 04:13:30;;;;;;;9.77;8.23;;;14.50;99.90;;;;;;5010530;28;20215;-75
2023/08/06 04:16:14;;;;;;;10.43;8.93;;;14.50;99.90;;;;;;5008778;28;20243;-74
2023/08/06 04:18:59;;;;;;;11.80;8.87;;;14.50;99.90;;;;;;5000126;28;20587;-75
2023/08/06 04:21:43;;;;;;;11.30;9.43;;;14.50;99.90;;;;;;5003839;28;20281;-76
2023/08/06 04:24:28;;;;;;;11.47;9.90;;;14.50;99.90;;;;;;5006027;28;20192;-76
2023/08/06 04:27:14;;;;;;;13.37;10.87;;;14.50;99.90;;;;;;4997480;28;20188;-75
2023/08/06 04:29:58;;;;;;;13.57;11.73;;;14.50;99.90;;;;;;5023697;28;20215;-73
2023/08/06 04:32:45;;;;;;;13.77;12.20;;;14.40;99.90;;;;;;5013595;28;20252;-74
2023/08/06 04:35:30;;;;;;;14.23;12.20;;;14.50;99.90;;;;;;5017952;28;20188;-71
2023/08/06 04:38:14;;;;;;;18.10;13.73;;;14.50;99.90;;;;;;5022857;28;20207;-76
2023/08/06 04:41:03;;;;;;;18.77;13.73;;;14.50;99.90;;;;;;5012253;28;20200;-75
2023/08/06 04:43:47;;;;;;;18.53;13.87;;;14.50;99.90;;;;;;5005973;28;20200;-72
2023/08/06 04:46:32;;;;;;;16.87;13.80;;;14.40;99.90;;;;;;5004091;28;20283;-74
2023/08/06 04:49:18;;;;;;;20.33;14.70;;;14.40;99.90;;;;;;5016716;28;20204;-73
2023/08/06 04:52:06;;;;;;;17.33;13.90;;;14.40;99.90;;;;;;5018741;28;20691;-74
2023/08/06 04:54:52;;;;;;;16.97;14.40;;;14.40;99.90;;;;;;5007179;28;20180;-75
2023/08/06 04:57:37;;;;;;;17.77;14.23;;;14.30;99.90;;;;;;5010981;28;20299;-74
2023/08/06 05:00:22;;;;;;;17.73;14.47;;;14.40;99.90;;;;;;5010826;28;20193;-73
2023/08/06 05:03:07;;;;;;;19.87;14.63;;;14.40;99.90;;;;;;5007096;28;20670;-72
2023/08/06 05:05:51;;;;;;;19.70;15.30;;;14.30;99.90;;;;;;5003283;28;20320;-74
2023/08/06 05:08:39;;;;;;;19.13;14.33;;;14.30;99.90;;;;;;5005067;28;20283;-75
2023/08/06 05:11:24;;;;;;;19.23;14.47;;;14.40;99.90;;;;;;4999547;28;20793;-74
2023/08/06 05:14:11;;;;;;;18.67;14.47;;;14.40;99.90;;;;;;5014427;28;20663;-75
2023/08/06 05:16:56;;;;;;;17.53;13.27;;;14.40;99.90;;;;;;5009935;28;20228;-75
2023/08/06 05:19:41;;;;;;;17.07;14.03;;;14.40;99.90;;;;;;5003242;28;20866;-74
2023/08/06 05:22:25;;;;;;;17.63;13.80;;;14.40;99.90;;;;;;5017905;28;20192;-72
2023/08/06 05:25:11;;;;;;;16.27;13.47;;;14.40;99.90;;;;;;5008960;28;20188;-72
2023/08/06 05:27:55;;;;;;;16.43;13.73;;;14.40;99.90;;;;;;5004741;28;20255;-74
2023/08/06 05:30:40;;;;;;;17.27;13.67;;;14.40;99.90;;;;;;5009676;28;20208;-72
2023/08/06 05:33:25;;;;;;;19.73;13.23;;;14.50;99.90;;;;;;5002858;28;20339;-74
2023/08/06 05:36:09;;;;;;;16.53;13.73;;;14.50;99.90;;;;;;5023148;28;20184;-73
2023/08/06 05:38:53;;;;;;;17.00;12.97;;;14.50;99.90;;;;;;5008162;28;20218;-74
2023/08/06 05:41:37;;;;;;;18.10;14.30;;;14.50;99.90;;;;;;4999509;28;20566;-74
2023/08/06 05:44:23;;;;;;;17.03;13.27;;;14.40;99.90;;;;;;5019004;28;20229;-73
2023/08/06 05:47:07;;;;;;;15.53;13.07;;;14.50;99.90;;;;;;5007230;28;20191;-72
2023/08/06 05:49:51;;;;;;;17.40;12.13;;;14.40;99.90;;;;;;5003980;28;20747;-73
2023/08/06 05:52:35;;;;;;;15.33;12.90;;;15.30;99.90;;;;;;5020981;28;20212;-73
2023/08/06 05:55:20;;;;;;;17.60;12.97;;;14.50;99.90;;;;;;5001314;28;20228;-73
2023/08/06 05:58:04;;;;;;;14.37;12.10;;;14.50;99.90;;;;;;5014147;28;20229;-73
2023/08/06 06:00:48;;;;;;;15.37;12.57;;;14.60;99.90;;;;;;5000513;28;20206;-73
2023/08/06 06:03:32;;;;;;;16.90;11.73;;;14.60;99.90;;;;;;5003781;28;20547;-74
2023/08/06 06:06:18;;;;;;;14.60;12.27;;;14.60;99.90;;;;;;4993569;28;20205;-73
2023/08/06 06:09:02;;;;;;;14.00;11.40;;;14.60;99.90;;;;;;4999389;28;20212;-74
2023/08/06 06:11:47;;;;;;;14.30;12.17;;;14.60;99.90;;;;;;5003080;28;20255;-72
2023/08/06 06:14:33;;;;;;;13.97;11.57;;;14.60;99.90;;;;;;5010243;28;20197;-75
2023/08/06 06:17:17;;;;;;;14.70;12.50;;;14.60;99.90;;;;;;4995273;28;20185;-73
2023/08/06 06:20:03;;;;;;;15.43;12.60;;;14.80;99.90;;;;;;4997865;28;20306;-74
2023/08/06 06:22:47;;;;;;;15.20;12.37;;;14.70;99.90;;;;;;4997899;28;20231;-74
2023/08/06 06:25:31;;;;;;;15.70;11.53;;;16.20;99.90;;;;;;4996490;28;20220;-72
2023/08/06 06:28:15;;;;;;;15.97;12.17;;;14.70;99.90;;;;;;5014705;28;20216;-73
2023/08/06 06:31:01;;;;;;;15.40;12.60;;;14.70;99.90;;;;;;4994080;28;20193;-74
2023/08/06 06:33:45;;;;;;;14.97;12.20;;;14.70;99.90;;;;;;5008112;28;20208;-73
2023/08/06 06:36:29;;;;;;;16.80;12.40;;;14.80;99.90;;;;;;5004642;28;20192;-74
2023/08/06 06:39:13;;;;;;;17.90;12.50;;;14.80;99.90;;;;;;5003351;28;20215;-74
2023/08/06 06:41:57;;;;;;;16.93;11.97;;;14.80;99.90;;;;;;5004287;28;20201;-73
2023/08/06 06:44:41;;;;;;;14.33;11.70;;;14.90;99.90;;;;;;5006572;28;20200;-73
2023/08/06 06:47:25;;;;;;;14.07;10.83;;;14.90;99.90;;;;;;5005775;28;20207;-73
2023/08/06 06:50:10;;;;;;;15.73;10.53;;;14.90;99.90;;;;;;5008323;28;20611;-72
2023/08/06 06:52:54;;;;;;;12.87;11.20;;;14.50;99.90;;;;;;5003013;28;20203;-72
2023/08/06 06:55:38;;;;;;;13.87;10.90;;;;;;;;;;5002478;28;20559;-73
2023/08/06 06:58:23;;;;;;;12.23;10.87;;;;;;;;;;5000360;28;20211;-74
2023/08/06 07:01:09;;;;;;;13.83;10.80;;;12.70;99.90;;;;;;5018453;28;20199;-74
2023/08/06 07:03:53;;;;;;;12.87;10.47;;;14.40;99.90;;;;;;5013703;28;20193;-73
2023/08/06 07:06:38;;;;;;;12.57;10.33;;;15.30;99.90;;;;;;4998157;28;20235;-72
2023/08/06 07:09:22;;;;;;;13.97;10.13;;;15.30;99.90;;;;;;5009239;28;20208;-73
2023/08/06 07:12:07;;;;;;;12.77;10.63;;;;;;;;;;4991141;28;20209;-73
2023/08/06 07:14:51;;;;;;;13.47;9.63;;;15.70;99.90;;;;;;4995260;28;20203;-72
2023/08/06 07:17:35;;;;;;;12.47;9.57;;;15.60;99.90;;;;;;5000429;28;20255;-72
2023/08/06 07:20:19;;;;;;;10.60;9.50;;;15.60;99.90;;;;;;5004338;28;20180;-73
2023/08/06 07:23:03;;;;;;;13.87;10.07;;;15.70;99.90;;;;;;5004694;28;20187;-72
2023/08/06 07:25:47;;;;;;;12.63;9.97;;;15.80;99.90;;;;;;5005524;28;20251;-73
2023/08/06 07:28:31;;;;;;;12.70;10.27;;;15.90;99.90;;;;;;5002842;28;20258;-71
2023/08/06 07:31:15;;;;;;;12.73;10.10;;;15.90;99.90;;;;;;5016108;28;20313;-72
2023/08/06 07:34:00;;;;;;;11.90;9.47;;;16.00;99.90;;;;;;5001467;28;20212;-72
2023/08/06 07:36:45;;;;;;;12.03;8.97;;;16.00;99.90;;;;;;5020000;28;20196;-72
2023/08/06 07:39:29;;;;;;;10.10;8.47;;;16.10;99.90;;;;;;5001233;28;20223;-72
2023/08/06 07:42:13;;;;;;;8.70;7.23;;;16.50;99.90;;;;;;5004812;28;20739;-74
2023/08/06 07:44:58;;;;;;;10.07;7.37;;;16.30;99.90;;;;;;5005314;28;20730;-74
2023/08/06 07:47:43;;;;;;;9.63;6.33;;;16.40;99.90;;;;;;5004875;28;20188;-73
2023/08/06 07:50:27;;;;;;;11.10;6.40;;;16.50;99.90;;;;;;5009491;28;20188;-73
2023/08/06 07:53:11;;;;;;;8.43;5.97;;;16.50;99.90;;;;;;5004622;28;20703;-73
2023/08/06 07:55:58;;;;;;;6.75;6.00;;;;;;;;;;5005807;28;20188;-73
2023/08/06 07:58:45;;;;;;;9.53;6.53;;;;;;;;;;5009729;28;20699;-73
2023/08/06 08:01:30;;;;;;;11.67;7.37;;;;;;;;;;5018098;28;20211;-74
2023/08/06 08:04:14;;;;;;;9.50;7.95;;;;;;;;;;5007363;28;20212;-73
2023/08/06 08:06:59;;;;;;;10.07;7.27;;;;;;;;;;5003393;28;20185;-73
2023/08/06 08:09:44;;;;;;;9.03;6.60;;;;;;;;;;5004595;28;20211;-73
2023/08/06 08:12:28;;;;;;;7.93;7.15;;;;;;;;;;5014157;28;20263;-73
2023/08/06 08:15:13;;;;;;;7.93;6.78;;;;;;;;;;5006523;28;20204;-73
2023/08/06 08:17:58;;;;;;;9.15;7.32;;;;;;;;;;5012774;28;20176;-74
2023/08/06 08:20:42;;;;;;;7.97;7.18;;;;;;;;;;5004075;28;20193;-74
2023/08/06 08:23:27;;;;;;;9.55;7.07;;;;;;;;;;5001581;28;20208;-73
2023/08/06 08:26:11;;;;;;;7.80;7.05;;;;;;;;;;5010559;28;20580;-72
2023/08/06 08:28:57;;;;;;;7.67;6.83;;;;;;;;;;5018810;28;20216;-72
2023/08/06 08:31:41;;;;;;;7.32;6.28;;;;;;;;;;5020320;28;20204;-73
2023/08/06 08:34:26;;;;;;;7.82;6.88;;;;;;;;;;4999002;28;20189;-72
2023/08/06 08:37:10;;;;;;;6.03;5.43;;;;;;;;;;5008786;28;20222;-73
2023/08/06 08:39:55;;;;;;;6.38;5.75;;;;;;;;;;5016672;28;20212;-72
2023/08/06 08:42:39;;;;;;;9.13;5.90;;;;;;;;;;5004444;28;20228;-72
2023/08/06 08:45:26;;;;;;;7.68;6.07;;;;;;;;;;5009629;28;20216;-72
2023/08/06 08:48:15;;;;;;;8.43;5.97;;;;;;;;;;5024739;28;20220;-72
2023/08/06 08:51:00;;;;;;;6.07;5.47;;;;;;;;;;5020978;28;20208;-73
2023/08/06 08:53:45;;;;;;;6.60;5.97;;;;;;;;;;5008077;28;20295;-73
2023/08/06 08:56:30;;;;;;;5.45;4.95;;;;;;;;;;5003887;28;20182;-73
2023/08/06 08:59:14;;;;;;;4.50;4.10;;;;;;;;;;4996471;28;20208;-73
2023/08/06 09:02:01;;;;;;;5.45;5.00;;;;;;;;;;5002083;28;20247;-71
2023/08/06 09:04:47;;;;;;;4.07;3.67;;;;;;;;;;5023423;28;20209;-73
2023/08/06 09:07:41;;;;;;;5.45;4.32;;;18.50;99.90;;;;;;5007431;28;20203;-72
2023/08/06 09:10:28;;;;;;;6.22;4.15;;;;;;;;;;5010117;28;20191;-74
2023/08/06 09:13:13;;;;;;;4.47;4.07;;;;;;;;;;5010046;28;20255;-73
2023/08/06 09:15:58;;;;;;;4.70;3.80;;;;;;;;;;5009277;28;20204;-74
2023/08/06 09:18:42;;;;;;;4.47;4.07;;;;;;;;;;5005865;28;20225;-74
2023/08/06 09:21:29;;;;;;;4.10;3.70;;;;;;;;;;5007840;28;20269;-74
2023/08/06 09:24:13;;;;;;;4.50;3.50;;;18.60;99.90;;;;;;5017307;28;20196;-73
2023/08/06 09:27:03;;;;;;;5.20;3.45;;;18.50;99.90;;;;;;5013718;28;20250;-73
2023/08/06 09:29:48;;;;;;;4.78;4.30;;;18.50;99.90;;;;;;5005329;28;20259;-74
2023/08/06 09:32:46;;;;;;;8.35;3.63;;;20.30;99.90;;;;;;5014590;28;20220;-73
2023/08/06 09:35:31;;;;;;;3.70;3.38;;;14.70;99.90;;;;;;5001622;28;20189;-73
2023/08/06 09:38:15;;;;;;;3.67;3.38;;;18.60;99.90;;;;;;5005259;28;20212;-74
2023/08/06 09:40:59;;;;;;;4.43;2.88;;;17.80;99.90;;;;;;5003388;28;20204;-74
2023/08/06 09:43:44;;;;;;;3.47;3.08;;;21.10;99.90;;;;;;5001258;28;20208;-73
2023/08/06 09:46:30;;;;;;;3.72;3.40;;;19.60;99.90;;;;;;5023225;28;20328;-72
2023/08/06 09:49:15;;;;;;;3.30;3.00;;;18.80;99.90;;;;;;5003112;28;20224;-73
2023/08/06 09:52:00;;;;;;;3.30;2.88;;;18.80;99.90;;;;;;4997247;28;20276;-73
2023/08/06 09:54:44;;;;;;;2.83;2.63;;;18.90;99.90;;;;;;4996885;28;20183;-73
2023/08/06 09:57:30;;;;;;;2.92;2.72;;;18.90;99.90;;;;;;5001838;28;20184;-73
2023/08/06 10:00:14;;;;;;;3.17;2.20;;;18.90;99.90;;;;;;5014752;28;20307;-73
2023/08/06 10:03:01;;;;;;;4.28;2.28;;;19.10;99.90;;;;;;5003105;28;20250;-74
2023/08/06 10:05:48;;;;;;;2.63;2.20;;;;;;;;;;4999779;28;20188;-73
2023/08/06 10:08:32;;;;;;;2.60;2.20;;;19.00;99.90;;;;;;5014656;28;20236;-73
2023/08/06 10:11:21;;;;;;;2.47;2.28;;;19.20;99.90;;;;;;5011962;28;20272;-73
2023/08/06 10:14:15;;;;;;;2.85;2.50;;;19.20;99.90;;;;;;4997882;28;20695;-74
2023/08/06 10:16:59;;;;;;;2.47;2.17;;;19.20;99.90;;;;;;5020062;28;20204;-73
2023/08/06 10:19:45;;;;;;;2.80;2.20;;;18.90;99.90;;;;;;5007913;28;20270;-74
2023/08/06 10:22:33;;;;;;;3.88;2.05;;;19.10;99.90;;;;;;5002785;28;20568;-75
2023/08/06 10:25:18;;;;;;;3.05;2.75;;;;;;;;;;4997172;28;20207;-73
2023/08/06 10:28:17;;;;;;;1.73;1.63;;;;;;;;;;5019225;28;20283;-72
2023/08/06 10:31:04;;;;;;;4.43;2.28;;;19.20;99.90;;;;;;5007324;28;20184;-74
2023/08/06 10:33:49;;;;;;;2.55;2.35;;;;;;;;;;4993952;28;20278;-72
2023/08/06 10:36:37;;;;;;;3.55;2.10;;;18.90;99.90;;;;;;5015439;28;20265;-73
2023/08/06 10:39:24;;;;;;;2.35;2.15;;;;;;;;;;5007830;28;20220;-72
2023/08/06 10:42:26;;;;;;;2.60;2.20;;;19.50;99.90;;;;;;5005037;28;20636;-73
2023/08/06 10:45:18;;;;;;;2.10;1.90;;;;;;;;;;5012181;28;20183;-73
2023/08/06 10:48:03;;;;;;;2.20;1.88;;;19.60;99.90;;;;;;5015598;28;20212;-74
2023/08/06 10:50:50;;;;;;;2.15;1.95;;;19.60;99.90;;;;;;5003720;28;20196;-75
2023/08/06 10:53:35;;;;;;;1.83;1.50;;;19.90;99.90;;;;;;5004836;28;20216;-75
2023/08/06 10:56:25;;;;;;;3.17;2.13;;;19.90;99.90;;;;;;5020123;28;20236;-75
2023/08/06 10:59:10;;;;;;;3.00;2.00;;;20.00;99.90;;;;;;5002119;28;20255;-74
2023/08/06 11:01:54;;;;;;;2.88;1.80;;;20.00;99.90;;;;;;4999626;28;20236;-75
2023/08/06 11:04:39;;;;;;;4.45;2.08;;;20.00;99.90;;;;;;5002479;28;20660;-77
2023/08/06 11:07:28;;;;;;;3.33;1.50;;;;;;;;;;5007072;28;20242;-75
2023/08/06 11:10:16;;;;;;;1.65;1.55;;;;;;;;;;4996527;28;20288;-75
2023/08/06 11:13:12;;;;;;;4.10;1.67;;;;;;;;;;4998693;28;20208;-74
2023/08/06 11:15:59;;;;;;;1.75;1.60;;;;;;;;;;5013164;28;20188;-74
2023/08/06 11:18:44;;;;;;;3.38;1.95;;;20.00;99.90;;;;;;5011838;28;20212;-74
2023/08/06 11:21:29;;;;;;;2.42;1.73;;;19.90;99.90;;;;;;5005029;28;20180;-74
2023/08/06 11:24:13;;;;;;;2.72;1.75;;;20.10;99.90;;;;;;5024398;28;20239;-75
2023/08/06 11:26:57;;;;;;;2.25;2.05;;;18.10;99.90;;;;;;5005591;28;20240;-75
2023/08/06 11:29:42;;;;;;;2.53;2.15;;;20.00;99.90;;;;;;5006428;28;20228;-74
2023/08/06 11:32:27;;;;;;;3.00;1.67;;;20.00;99.90;;;;;;5005069;28;20307;-75
2023/08/06 11:35:12;;;;;;;3.45;1.58;;;20.10;99.90;;;;;;5002251;28;20188;-74
2023/08/06 11:38:00;;;;;;;3.83;1.75;;;20.10;99.90;;;;;;5000433;28;20204;-74
2023/08/06 11:40:45;;;;;;;3.15;1.80;;;20.10;99.90;;;;;;5009941;28;20196;-74
2023/08/06 11:43:31;;;;;;;5.18;2.30;;;20.10;99.90;;;;;;5007214;28;20224;-76
2023/08/06 11:46:15;;;;;;;3.13;2.15;;;20.10;99.90;;;;;;5007642;28;20196;-74
2023/08/06 11:48:59;;;;;;;4.70;1.90;;;20.10;99.90;;;;;;5003067;28;20220;-75
2023/08/06 11:51:45;;;;;;;2.13;1.80;;;20.10;99.90;;;;;;5015803;28;20277;-75
2023/08/06 11:54:36;;;;;;;1.95;1.65;;;20.00;99.90;;;;;;5024553;28;20263;-74
2023/08/06 11:57:21;;;;;;;2.20;2.00;;;20.00;99.90;;;;;;5001199;28;20234;-76
2023/08/06 12:00:10;;;;;;;3.17;2.35;;;20.00;99.90;;;;;;5003748;28;20241;-74
2023/08/06 12:02:56;;;;;;;2.55;1.85;;;21.50;99.90;;;;;;4998773;28;20232;-74
2023/08/06 12:05:40;;;;;;;1.90;1.80;;;20.00;99.90;;;;;;4997411;28;20325;-74
2023/08/06 12:08:28;;;;;;;2.83;2.00;;;19.90;99.90;;;;;;5005055;28;20235;-74
2023/08/06 12:11:12;;;;;;;2.45;1.90;;;19.90;99.90;;;;;;5008068;28;20263;-74
2023/08/06 12:13:56;;;;;;;2.30;2.10;;;20.40;99.90;;;;;;5010342;28;20216;-74
2023/08/06 12:16:41;;;;;;;3.15;2.10;;;20.90;99.90;;;;;;5006345;28;20189;-74
2023/08/06 12:19:26;;;;;;;2.13;1.73;;;20.00;99.90;;;;;;5006031;28;20211;-75
2023/08/06 12:22:10;;;;;;;1.58;1.42;;;20.10;99.90;;;;;;5011745;28;20184;-73
2023/08/06 12:24:54;;;;;;;2.15;1.95;;;20.00;99.90;;;;;;5018043;28;20256;-74
2023/08/06 12:27:39;;;;;;;2.55;1.92;;;20.10;99.90;;;;;;5007731;28;20244;-73
2023/08/06 12:30:23;;;;;;;2.85;2.55;;;20.10;99.90;;;;;;5001253;28;20188;-75
2023/08/06 12:33:08;;;;;;;3.20;2.80;;;20.10;99.90;;;;;;5003435;28;20255;-74
2023/08/06 12:35:57;;;;;;;3.58;3.28;;;20.20;99.90;;;;;;5009112;28;20216;-75
2023/08/06 12:38:41;;;;;;;3.67;3.35;;;20.10;99.90;;;;;;5003431;28;20212;-75
2023/08/06 12:41:25;;;;;;;6.20;3.85;;;20.10;99.90;;;;;;5006036;28;20183;-74
2023/08/06 12:44:13;;;;;;;4.40;4.00;;;20.20;99.90;;;;;;5006147;28;20195;-75
2023/08/06 12:46:59;;;;;;;4.30;3.90;;;20.30;99.90;;;;;;5008453;28;20200;-75
2023/08/06 12:49:43;;;;;;;4.65;4.25;;;20.30;99.90;;;;;;5006732;28;20259;-74
2023/08/06 12:52:27;;;;;;;6.97;4.93;;;20.30;99.90;;;;;;5006433;28;20649;-74
2023/08/06 12:55:11;;;;;;;4.65;4.10;;;20.30;99.90;;;;;;5010727;28;20200;-74
2023/08/06 12:57:55;;;;;;;5.93;4.45;;;20.40;99.90;;;;;;4998770;28;20672;-74
2023/08/06 13:00:39;;;;;;;5.05;4.55;;;20.40;99.90;;;;;;5001260;28;20207;-73
2023/08/06 13:03:23;;;;;;;4.35;4.00;;;20.50;99.90;;;;;;5005468;28;20251;-74
2023/08/06 13:06:09;;;;;;;3.63;3.33;;;20.50;99.90;;;;;;5002020;28;20667;-73
2023/08/06 13:08:53;;;;;;;5.50;3.13;;;20.50;99.90;;;;;;5003028;28;20308;-74
2023/08/06 13:11:38;;;;;;;3.55;3.25;;;20.40;99.90;;;;;;5009754;28;20188;-75
2023/08/06 13:14:22;;;;;;;2.60;2.40;;;20.50;99.90;;;;;;5007760;28;20200;-74
2023/08/06 13:17:07;;;;;;;2.75;2.25;;;20.50;99.90;;;;;;5005481;28;20208;-73
2023/08/06 13:19:51;;;;;;;2.45;2.15;;;20.50;99.90;;;;;;5000872;28;20216;-75
2023/08/06 13:22:35;;;;;;;2.50;2.30;;;20.40;99.90;;;;;;5017092;28;20188;-75
2023/08/06 13:25:19;;;;;;;2.35;2.15;;;20.50;99.90;;;;;;4994024;28;20224;-74
2023/08/06 13:28:03;;;;;;;2.75;2.55;;;20.60;99.90;;;;;;5001637;28;20200;-73
2023/08/06 13:30:48;;;;;;;2.83;2.35;;;20.70;99.90;;;;;;5007489;28;20200;-75
2023/08/06 13:33:32;;;;;;;3.78;2.55;;;20.70;99.90;;;;;;4995125;28;20219;-73
2023/08/06 13:36:17;;;;;;;2.65;2.05;;;20.70;99.90;;;;;;5006278;28;20184;-73
2023/08/06 13:39:03;;;;;;;2.05;1.80;;;20.70;99.90;;;;;;5003691;28;20251;-73
2023/08/06 13:41:47;;;;;;;1.52;1.40;;;21.60;99.90;;;;;;5001382;28;20183;-73
2023/08/06 13:44:35;;;;;;;1.50;1.40;;;20.80;99.90;;;;;;5009635;28;20187;-75
2023/08/06 13:47:19;;;;;;;1.73;1.10;;;20.80;99.90;;;;;;5005045;28;20192;-75
2023/08/06 13:50:04;;;;;;;1.52;1.40;;;20.80;99.90;;;;;;5005017;28;20272;-74
2023/08/06 13:52:48;;;;;;;2.40;1.60;;;20.80;99.90;;;;;;5007338;28;20215;-75
2023/08/06 13:55:33;;;;;;;1.55;1.40;;;20.80;99.90;;;;;;5009756;28;20238;-75
2023/08/06 13:58:17;;;;;;;1.58;1.48;;;20.90;99.90;;;;;;4999812;28;20268;-75
2023/08/06 14:01:01;;;;;;;4.15;1.73;;;21.00;99.90;;;;;;5004886;28;20203;-74
2023/08/06 14:03:45;;;;;;;1.52;1.42;;;21.00;99.90;;;;;;5002479;28;20188;-73
2023/08/06 14:06:30;;;;;;;5.18;1.50;;;21.00;99.90;;;;;;5006741;28;20672;-73
2023/08/06 14:09:18;;;;;;;2.00;1.60;;;20.90;99.90;;;;;;5001209;28;20277;-73
2023/08/06 14:12:03;;;;;;;1.35;1.25;;;21.00;99.90;;;;;;5002690;28;20184;-73
2023/08/06 14:14:47;;;;;;;1.85;1.60;;;21.00;99.90;;;;;;5001411;28;20204;-73
2023/08/06 14:17:31;;;;;;;2.63;1.50;;;21.10;99.90;;;;;;5007152;28;20247;-74
2023/08/06 14:20:15;;;;;;;3.72;1.40;;;21.20;99.90;;;;;;4999842;28;20212;-73
2023/08/06 14:22:59;;;;;;;1.60;1.50;;;21.20;99.90;;;;;;5004128;28;20671;-73
2023/08/06 14:25:44;;;;;;;2.30;1.50;;;21.20;99.90;;;;;;4999697;28;20199;-73
2023/08/06 14:28:28;;;;;;;3.15;1.50;;;21.30;99.90;;;;;;5003149;28;20266;-73
2023/08/06 14:31:12;;;;;;;2.85;1.80;;;21.40;99.90;;;;;;5008468;28;20231;-73